createdAt,value
2022-09-12T03:32:43.037Z,2.18
2022-09-12T03:37:44.783Z,2.18
2022-09-12T03:42:46.443Z,4
2022-09-12T03:47:48.243Z,4
2022-09-12T03:52:49.837Z,4.94
2022-09-12T03:57:52.825Z,4.94
2022-09-12T04:02:55.502Z,2.66
2022-09-12T04:07:57.139Z,2.66
2022-09-12T04:12:59.076Z,2.88
2022-09-12T04:23:06.666Z,2.5
2022-09-12T04:28:08.308Z,2.5
2022-09-12T04:33:09.955Z,5.83
2022-09-12T04:38:11.852Z,3.21
2022-09-12T04:43:15.641Z,3.21
2022-09-12T04:48:17.274Z,3.55
2022-09-12T04:53:18.945Z,3.55
2022-09-12T04:58:20.576Z,7
2022-09-12T05:03:23.241Z,7
2022-09-12T05:08:25.058Z,3.65
2022-09-12T05:13:26.730Z,3.65
2022-09-12T05:18:28.665Z,5.37
2022-09-12T05:23:30.629Z,5.37
2022-09-12T05:28:33.573Z,6.3
2022-09-12T05:33:36.626Z,6.3
2022-09-12T05:38:38.620Z,4.17
2022-09-12T05:43:41.250Z,4.17
2022-09-12T05:48:43.855Z,3.18
2022-09-12T05:53:46.554Z,3.85
2022-09-12T05:58:52.017Z,3.85
2022-09-12T06:03:54.596Z,4.61
2022-09-12T06:08:57.292Z,4.61
2022-09-12T06:13:59.301Z,2.69
2022-09-12T06:19:01.723Z,2.69
2022-09-12T06:24:03.666Z,4.91
2022-09-12T06:29:05.417Z,4.91
2022-09-12T06:34:08.495Z,3.36
2022-09-12T06:39:11.093Z,3.36
2022-09-12T06:44:14.161Z,5.94
2022-09-12T06:49:16.203Z,5.94
2022-09-12T06:54:18.174Z,4.96
2022-09-12T06:59:19.812Z,4.96
2022-09-12T07:04:21.511Z,4.86
2022-09-12T07:09:23.198Z,4.79
2022-09-12T07:14:25.047Z,4.79
2022-09-12T07:19:26.624Z,3.47
2022-09-12T07:24:28.284Z,3.47
2022-09-12T07:34:35.906Z,2.49
2022-09-12T07:39:37.965Z,3.39
2022-09-12T07:44:41.246Z,3.39
2022-09-12T07:49:42.978Z,4.28
2022-09-12T07:54:44.661Z,4.28
2022-09-12T08:04:51.936Z,4.39
2022-09-12T08:09:53.572Z,5.26
2022-09-12T08:14:55.406Z,5.26
2022-09-12T08:19:57.299Z,2.95
2022-09-12T08:24:58.930Z,5.49
2022-09-12T08:30:00.609Z,5.49
2022-09-12T08:35:02.498Z,4.86
2022-09-12T08:40:04.610Z,4.86
2022-09-12T08:45:11.674Z,5.02
2022-09-12T08:50:15.140Z,5.02
2022-09-12T08:55:27.354Z,5.19
2022-09-12T09:00:34.704Z,5.19
2022-09-12T09:10:48.019Z,5.73
2022-09-12T09:20:56.944Z,10.57
2022-09-12T09:26:00.095Z,4.26
2022-09-12T09:31:02.456Z,4.26
2022-09-12T09:46:20.615Z,3.86
2022-09-12T09:51:25.519Z,1.42
2022-09-12T09:56:28.577Z,1.42
2022-09-12T10:01:30.519Z,4.01
2022-09-12T10:06:33.236Z,4.01
2022-09-12T10:11:35.504Z,2.62
2022-09-12T10:21:46.165Z,5.03
2022-09-12T10:31:55.747Z,10.86
2022-09-12T10:37:00.390Z,10.86
2022-09-12T10:42:02.405Z,5.88
2022-09-12T10:52:16.733Z,5.14
2022-09-12T10:57:29.029Z,5.42
2022-09-12T11:02:35.435Z,5.42
2022-09-12T11:07:41.870Z,6.06
2022-09-12T11:12:46.692Z,6.06
2022-09-12T11:17:51.599Z,4.36
2022-09-12T11:33:17.973Z,3.58
2022-09-12T11:38:27.977Z,2.19
2022-09-12T11:43:33.981Z,6.33
2022-09-12T11:48:38.694Z,6.33
2022-09-12T11:53:42.166Z,3.07
2022-09-12T11:58:46.764Z,3.07
2022-09-12T12:03:49.082Z,6.58
2022-09-12T12:08:51.323Z,6.58
2022-09-12T12:13:56.140Z,2.75
2022-09-12T12:18:59.166Z,2.75
2022-09-12T12:24:03.299Z,5.21
2022-09-12T12:29:08.619Z,5.21
2022-09-12T12:49:49.922Z,2.44
2022-09-12T12:54:53.987Z,4.01
2022-09-12T12:59:57.363Z,2.26
2022-09-12T13:05:00.002Z,2.26
2022-09-12T13:10:03.318Z,5.42
2022-09-12T13:25:25.677Z,3.38
2022-09-12T13:30:27.846Z,3.5
2022-09-12T13:45:41.677Z,4.24
2022-09-12T13:50:48.793Z,4.85
2022-09-12T13:55:52.357Z,4.85
2022-09-12T14:01:01.169Z,6.49
2022-09-12T14:06:02.921Z,3.19
2022-09-12T14:11:07.879Z,3.19
2022-09-12T14:16:10.904Z,4.6
2022-09-12T14:21:16.063Z,4.6
2022-09-12T14:26:17.821Z,5.81
2022-09-12T14:31:22.445Z,5.81
2022-09-12T14:36:25.059Z,4.57
2022-09-12T14:41:28.968Z,4.57
2022-09-12T14:46:33.085Z,7.62
2022-09-12T14:51:36.483Z,7.62
2022-09-12T14:56:39.096Z,0
2022-09-12T15:01:40.987Z,0
2022-09-12T15:06:42.705Z,3.2
2022-09-12T15:11:44.361Z,5.3
2022-09-12T15:16:45.995Z,5.3
2022-09-12T15:21:47.736Z,7.48
2022-09-12T15:26:49.539Z,7.48
2022-09-12T15:31:51.254Z,8.16
2022-09-12T15:36:52.998Z,8.16
2022-09-12T15:41:54.775Z,6.14
2022-09-12T15:46:56.401Z,6.14
2022-09-12T15:51:58.153Z,3.88
2022-09-12T15:56:59.793Z,3.88
2022-09-12T16:02:01.811Z,5.3
2022-09-12T16:07:03.461Z,5.3
2022-09-12T16:12:05.285Z,4.56
2022-09-12T16:17:07.056Z,5.04
2022-09-12T16:22:08.656Z,5.04
2022-09-12T16:27:10.435Z,2.74
2022-09-12T16:32:12.129Z,2.74
2022-09-12T16:37:13.858Z,3.73
2022-09-12T16:42:16.130Z,3.73
2022-09-12T16:47:17.949Z,4.69
2022-09-12T16:52:19.710Z,4.69
2022-09-12T16:57:21.458Z,3.07
2022-09-12T17:02:23.511Z,3.07
2022-09-12T17:07:25.268Z,3
2022-09-12T17:12:26.931Z,3
2022-09-12T17:17:28.668Z,2.94
2022-09-12T17:22:30.340Z,2.94
2022-09-12T17:27:32.021Z,4.42
2022-09-12T17:32:33.601Z,3.14
2022-09-12T17:37:35.622Z,3.14
2022-09-12T17:42:37.426Z,0
2022-09-12T17:47:39.617Z,0
2022-09-12T17:52:41.604Z,5.12
2022-09-12T17:57:43.390Z,5.12
2022-09-12T18:02:47.276Z,4.93
2022-09-12T18:07:49.602Z,4.93
2022-09-12T18:12:51.963Z,6.08
2022-09-12T18:17:55.238Z,6.08
2022-09-12T18:22:57.593Z,3.99
2022-09-12T18:28:00.042Z,3.99
2022-09-12T18:33:02.676Z,5.36
2022-09-12T18:38:05.161Z,5.36
2022-09-12T18:43:07.906Z,5.48
2022-09-12T18:48:10.309Z,3.12
2022-09-12T18:53:13.470Z,3.12
2022-09-12T18:58:16.544Z,4.83
2022-09-12T19:03:20.052Z,4.83
2022-09-12T19:08:22.866Z,3.3
2022-09-12T19:13:25.383Z,3.3
2022-09-12T19:18:28.067Z,2.77
2022-09-12T19:23:31.337Z,2.77
2022-09-12T19:28:33.954Z,2.57
2022-09-12T19:33:37.170Z,2.57
2022-09-12T19:38:40.043Z,2.36
2022-09-12T19:43:42.276Z,2.36
2022-09-12T19:48:44.361Z,0
2022-09-12T19:53:46.492Z,0
2022-09-12T19:58:57.619Z,1.1
2022-09-12T20:03:59.932Z,0
2022-09-12T20:09:02.007Z,0
2022-09-12T20:14:03.673Z,0
2022-09-12T20:19:06.501Z,0
2022-09-12T20:24:10.094Z,0
2022-09-12T20:29:11.896Z,0
2022-09-12T20:34:14.554Z,0
2022-09-12T20:39:17.054Z,0
2022-09-12T20:44:19.065Z,0
2022-09-12T20:49:20.816Z,0
2022-09-12T20:54:22.397Z,0
2022-09-12T20:59:24.165Z,0
2022-09-12T21:04:25.857Z,0
2022-09-12T21:09:27.630Z,0
2022-09-12T21:14:29.427Z,0
2022-09-12T21:19:31.204Z,0
2022-09-12T21:24:33.101Z,0
2022-09-12T21:29:34.800Z,0
2022-09-12T21:34:36.739Z,0
2022-09-12T21:39:38.285Z,0
